Time;durP1;ratioP1;P1;durP2;ratioP2;P2;SDS_P1;SDS_P2;PMS_P1;PMS_P2;Temp;Humidity;BMP_temperature;BMP_pressure;BME280_temperature;BME280_humidity;BME280_pressure;Samples;Min_cycle;Max_cycle;Signal;HPM_P1;HPM_P2
2021/12/20 00:05:14;;;;;;;4.43;2.00;;;17.90;66.60;;;;;;10402755;28;20222;-62
2021/12/20 00:10:37;;;;;;;4.77;2.17;;;17.80;66.50;;;;;;10408572;28;20218;-65
2021/12/20 00:15:59;;;;;;;5.57;1.93;;;17.80;66.50;;;;;;10407386;28;20194;-62
2021/12/20 00:21:22;;;;;;;5.90;1.97;;;17.90;66.50;;;;;;10408264;28;20201;-62
2021/12/20 00:26:45;;;;;;;3.20;1.73;;;17.80;66.40;;;;;;10411710;28;20229;-62
2021/12/20 00:32:07;;;;;;;3.43;1.70;;;17.80;66.40;;;;;;10416022;28;20194;-64
2021/12/20 00:43:10;;;;;;;5.10;2.03;;;17.80;66.40;;;;;;10415386;28;20587;-62
2021/12/20 00:48:32;;;;;;;5.43;1.93;;;17.90;66.40;;;;;;10445684;22;20236;-65
2021/12/20 00:53:56;;;;;;;4.63;1.80;;;17.80;66.40;;;;;;10456424;28;20387;-65
2021/12/20 00:59:18;;;;;;;2.67;1.67;;;17.80;66.40;;;;;;10456314;28;20342;-66
2021/12/20 01:04:40;;;;;;;4.13;2.00;;;17.80;66.30;;;;;;10457185;28;20225;-66
2021/12/20 01:10:07;;;;;;;3.27;1.60;;;17.80;66.30;;;;;;10455459;28;20221;-65
2021/12/20 01:15:33;;;;;;;3.30;1.80;;;17.80;66.30;;;;;;10455183;28;20185;-65
2021/12/20 01:20:55;;;;;;;2.97;1.70;;;17.80;66.30;;;;;;10453515;28;20294;-65
2021/12/20 01:26:19;;;;;;;3.47;1.47;;;17.80;66.30;;;;;;10455720;28;20224;-66
2021/12/20 01:31:41;;;;;;;3.13;1.70;;;17.80;66.20;;;;;;10455485;28;20197;-66
2021/12/20 01:37:03;;;;;;;2.80;1.67;;;17.80;66.20;;;;;;10454604;28;20213;-66
2021/12/20 01:42:30;;;;;;;3.03;1.50;;;17.80;66.20;;;;;;10455131;28;20201;-66
2021/12/20 01:48:02;;;;;;;3.67;1.73;;;17.80;66.20;;;;;;10455013;28;20221;-66
2021/12/20 01:53:25;;;;;;;3.57;1.63;;;17.80;66.20;;;;;;10455065;28;20560;-66
2021/12/20 01:58:49;;;;;;;2.20;1.40;;;17.80;66.20;;;;;;10454280;28;20696;-65
2021/12/20 02:04:12;;;;;;;4.13;1.80;;;17.80;66.20;;;;;;10454753;28;20223;-66
2021/12/20 02:09:34;;;;;;;3.83;2.00;;;17.80;66.20;;;;;;10454405;28;20213;-65
2021/12/20 02:14:58;;;;;;;2.47;1.60;;;17.80;66.10;;;;;;10454411;28;20200;-65
2021/12/20 02:20:29;;;;;;;4.43;1.93;;;17.80;66.10;;;;;;10453775;28;20228;-66
2021/12/20 02:25:51;;;;;;;2.90;1.47;;;17.80;66.00;;;;;;10453105;28;20631;-66
2021/12/20 02:42:36;;;;;;;2.83;1.53;;;17.80;66.10;;;;;;10452872;28;20188;-65
2021/12/20 02:47:58;;;;;;;4.07;1.50;;;17.80;66.10;;;;;;10453033;28;20228;-66
2021/12/20 02:53:22;;;;;;;3.00;1.43;;;17.80;66.00;;;;;;10453056;28;20197;-66
2021/12/20 02:58:44;;;;;;;3.47;1.53;;;17.80;66.00;;;;;;10450981;28;20216;-66
2021/12/20 03:04:07;;;;;;;2.97;1.53;;;17.80;66.00;;;;;;10448500;28;20584;-67
2021/12/20 03:09:35;;;;;;;2.70;1.37;;;17.80;66.00;;;;;;10452393;28;20622;-65
2021/12/20 03:15:03;;;;;;;3.17;1.20;;;17.80;65.90;;;;;;10451770;28;20197;-66
2021/12/20 03:20:25;;;;;;;2.50;1.40;;;17.80;65.90;;;;;;10448338;28;20220;-67
2021/12/20 03:25:49;;;;;;;2.27;1.33;;;17.80;65.90;;;;;;10450443;28;20584;-66
2021/12/20 03:31:12;;;;;;;3.10;1.50;;;17.80;65.90;;;;;;10450950;28;20688;-65
2021/12/20 03:36:35;;;;;;;2.07;1.30;;;17.80;65.90;;;;;;10447810;28;20221;-66
2021/12/20 03:42:00;;;;;;;3.97;1.57;;;17.80;65.90;;;;;;10449960;28;20197;-65
2021/12/20 03:47:22;;;;;;;2.57;1.53;;;17.80;65.80;;;;;;10450294;28;20228;-66
2021/12/20 03:52:44;;;;;;;5.17;1.43;;;17.80;65.80;;;;;;10449576;28;20208;-66
2021/12/20 03:58:08;;;;;;;1.97;1.40;;;17.80;65.80;;;;;;10450548;28;20231;-67
2021/12/20 04:03:33;;;;;;;2.47;1.40;;;17.80;65.80;;;;;;10457437;28;20213;-67
2021/12/20 04:08:55;;;;;;;2.50;1.20;;;17.80;65.70;;;;;;10459032;28;20592;-65
2021/12/20 04:14:19;;;;;;;2.60;1.40;;;17.80;65.70;;;;;;10458617;28;20254;-66
2021/12/20 04:19:41;;;;;;;2.80;1.30;;;17.80;65.70;;;;;;10458221;28;20221;-66
2021/12/20 04:25:03;;;;;;;3.40;1.40;;;17.80;65.70;;;;;;10457974;28;20217;-66
2021/12/20 04:30:29;;;;;;;2.37;1.20;;;17.80;65.70;;;;;;10457861;28;20213;-67
2021/12/20 04:35:51;;;;;;;2.60;1.70;;;17.80;65.70;;;;;;10457545;28;20189;-66
2021/12/20 04:41:13;;;;;;;2.20;1.13;;;17.80;65.70;;;;;;10457590;28;20213;-67
2021/12/20 04:46:37;;;;;;;1.97;1.00;;;17.80;65.70;;;;;;10451446;28;20232;-66
2021/12/20 04:51:59;;;;;;;2.67;1.23;;;17.80;65.70;;;;;;10416640;28;20588;-66
2021/12/20 04:57:21;;;;;;;2.33;1.20;;;17.80;65.60;;;;;;10414451;28;20213;-65
2021/12/20 05:02:44;;;;;;;1.73;1.20;;;17.80;65.60;;;;;;10447764;28;20695;-65
2021/12/20 05:08:07;;;;;;;4.13;1.00;;;17.80;65.50;;;;;;10449710;28;20687;-66
2021/12/20 05:13:29;;;;;;;3.17;1.20;;;17.80;65.50;;;;;;10449215;28;20189;-66
2021/12/20 05:18:52;;;;;;;2.63;1.10;;;17.80;65.50;;;;;;10451161;28;20224;-65
2021/12/20 05:24:14;;;;;;;1.30;1.00;;;17.80;65.50;;;;;;10449281;28;20691;-66
2021/12/20 05:29:36;;;;;;;1.47;0.90;;;17.80;65.40;;;;;;10443641;28;20223;-66
2021/12/20 05:35:00;;;;;;;2.40;1.10;;;17.80;65.40;;;;;;10454450;28;20200;-66
2021/12/20 05:40:22;;;;;;;3.27;1.17;;;17.90;65.40;;;;;;10449638;28;20228;-66
2021/12/20 05:45:44;;;;;;;2.03;1.10;;;17.80;65.30;;;;;;10451561;28;20623;-66
2021/12/20 05:51:08;;;;;;;1.60;1.20;;;17.80;65.30;;;;;;10453836;28;20595;-66
2021/12/20 05:56:30;;;;;;;2.73;1.30;;;17.80;65.20;;;;;;10454007;28;20189;-66
2021/12/20 06:01:52;;;;;;;2.47;0.80;;;17.80;65.30;;;;;;10414058;28;20677;-66
2021/12/20 06:07:15;;;;;;;3.27;1.10;;;17.80;65.10;;;;;;10434271;28;20607;-66
2021/12/20 06:12:39;;;;;;;2.30;1.20;;;17.80;65.20;;;;;;10452732;28;20200;-66
2021/12/20 06:18:01;;;;;;;5.23;1.37;;;17.80;65.10;;;;;;10452649;28;20209;-66
2021/12/20 06:23:25;;;;;;;2.43;1.10;;;17.80;65.20;;;;;;10453098;28;20193;-66
2021/12/20 06:28:47;;;;;;;1.67;1.03;;;17.80;65.10;;;;;;10453901;28;20208;-67
2021/12/20 06:34:09;;;;;;;2.30;1.17;;;17.80;65.10;;;;;;10450951;28;20590;-66
2021/12/20 06:39:33;;;;;;;3.40;1.30;;;17.80;65.00;;;;;;10452572;28;20217;-66
2021/12/20 06:44:55;;;;;;;2.37;1.27;;;17.80;65.00;;;;;;10452751;28;20217;-66
2021/12/20 06:50:17;;;;;;;2.17;1.20;;;17.80;65.00;;;;;;10439067;28;20220;-66
2021/12/20 06:55:41;;;;;;;3.67;1.40;;;17.80;65.10;;;;;;10445111;28;20204;-66
2021/12/20 07:01:04;;;;;;;2.23;1.20;;;17.80;65.10;;;;;;10446060;22;20279;-62
2021/12/20 07:06:26;;;;;;;3.60;1.60;;;17.80;65.10;;;;;;10449177;28;20243;-62
2021/12/20 07:11:49;;;;;;;3.53;1.40;;;17.80;65.00;;;;;;10442664;28;20193;-63
2021/12/20 07:17:13;;;;;;;2.30;1.20;;;17.80;65.00;;;;;;10449285;28;20232;-63
2021/12/20 07:22:35;;;;;;;3.47;1.33;;;17.80;65.00;;;;;;10450014;28;20559;-63
2021/12/20 07:27:58;;;;;;;1.83;1.03;;;17.80;64.90;;;;;;10449567;28;20221;-62
2021/12/20 07:33:20;;;;;;;2.60;1.40;;;17.80;64.90;;;;;;10445077;28;20205;-62
2021/12/20 07:38:43;;;;;;;3.23;1.37;;;17.80;64.90;;;;;;10448344;28;20224;-63
2021/12/20 07:44:07;;;;;;;2.40;1.33;;;17.80;64.90;;;;;;10447485;28;20192;-63
2021/12/20 07:49:29;;;;;;;2.33;1.30;;;17.80;64.90;;;;;;10431923;28;20243;-62
2021/12/20 07:54:51;;;;;;;2.20;1.13;;;17.80;64.90;;;;;;10447228;28;20200;-62
2021/12/20 08:00:16;;;;;;;2.10;1.30;;;17.80;64.90;;;;;;10448150;28;20233;-62
2021/12/20 08:05:38;;;;;;;2.00;0.90;;;17.80;64.80;;;;;;10441075;28;20714;-62
2021/12/20 08:11:00;;;;;;;3.70;1.43;;;17.80;64.80;;;;;;10444149;28;20213;-62
2021/12/20 08:16:24;;;;;;;2.00;1.23;;;17.80;64.90;;;;;;10446804;28;20198;-63
2021/12/20 08:21:46;;;;;;;2.57;1.20;;;17.80;64.90;;;;;;10445753;28;20201;-63
2021/12/20 08:27:08;;;;;;;2.87;1.20;;;17.80;65.00;;;;;;10443376;28;20232;-62
2021/12/20 08:32:32;;;;;;;1.83;1.03;;;17.70;65.10;;;;;;10447701;28;20199;-62
2021/12/20 08:37:54;;;;;;;2.23;1.27;;;17.70;65.10;;;;;;10432866;28;20225;-62
2021/12/20 08:43:17;;;;;;;2.23;1.10;;;17.70;65.20;;;;;;10447483;28;20579;-63
2021/12/20 08:48:41;;;;;;;1.93;1.33;;;17.70;65.20;;;;;;10433924;28;20279;-62
2021/12/20 08:54:03;;;;;;;1.63;1.20;;;17.70;65.30;;;;;;10454271;28;20197;-62
2021/12/20 08:59:25;;;;;;;3.13;1.00;;;17.70;65.30;;;;;;10453797;28;20221;-63
2021/12/20 09:04:49;;;;;;;3.23;1.50;;;17.70;65.40;;;;;;10439183;28;20224;-63
2021/12/20 09:10:13;;;;;;;1.67;1.10;;;17.70;65.40;;;;;;10448825;28;20208;-63
2021/12/20 09:15:36;;;;;;;2.63;1.37;;;17.70;65.40;;;;;;10451526;28;20225;-63
2021/12/20 09:21:00;;;;;;;3.03;1.40;;;17.70;65.40;;;;;;10439059;28;20220;-63
2021/12/20 09:26:22;;;;;;;2.30;1.20;;;17.70;65.50;;;;;;10453069;28;20695;-62
2021/12/20 09:31:45;;;;;;;1.80;1.20;;;17.70;65.50;;;;;;10452776;28;20209;-62
2021/12/20 09:37:08;;;;;;;2.33;1.33;;;17.70;65.50;;;;;;10450278;28;20296;-63
2021/12/20 09:42:33;;;;;;;2.73;1.23;;;17.70;65.50;;;;;;10441088;28;20197;-62
2021/12/20 09:47:55;;;;;;;2.83;1.40;;;17.70;65.50;;;;;;10451448;28;20297;-62
2021/12/20 09:53:19;;;;;;;2.13;1.43;;;17.80;65.60;;;;;;10449907;28;20224;-62
2021/12/20 09:58:42;;;;;;;2.10;1.23;;;17.70;65.50;;;;;;10445772;28;20217;-62
2021/12/20 10:04:05;;;;;;;2.07;1.20;;;17.70;65.60;;;;;;10451324;28;20208;-62
2021/12/20 10:09:32;;;;;;;2.10;1.40;;;17.70;65.70;;;;;;10440979;28;20216;-63
2021/12/20 10:14:58;;;;;;;2.17;1.30;;;17.80;65.70;;;;;;10446920;28;20582;-63
2021/12/20 10:20:23;;;;;;;2.07;1.23;;;17.70;65.70;;;;;;10450497;28;20209;-62
2021/12/20 10:25:48;;;;;;;3.10;1.30;;;17.80;65.60;;;;;;10449068;28;20279;-63
2021/12/20 10:31:13;;;;;;;1.67;1.13;;;17.80;65.50;;;;;;10450143;28;20221;-62
2021/12/20 10:36:35;;;;;;;1.77;1.10;;;17.80;65.50;;;;;;10449395;28;20708;-63
2021/12/20 10:42:14;;;;;;;1.57;1.20;;;17.80;65.50;;;;;;10450047;28;20201;-62
2021/12/20 10:47:36;;;;;;;1.57;1.10;;;17.90;65.30;;;;;;10449411;28;20225;-62
2021/12/20 10:53:15;;;;;;;1.40;1.00;;;17.80;65.40;;;;;;10439751;28;20227;-63
2021/12/20 10:58:40;;;;;;;2.17;1.10;;;17.80;65.20;;;;;;10449600;28;20214;-63
2021/12/20 11:04:06;;;;;;;2.47;1.10;;;17.80;65.50;;;;;;10449225;28;20197;-63
2021/12/20 11:09:32;;;;;;;1.97;1.27;;;17.80;65.40;;;;;;10443803;28;20217;-63
2021/12/20 11:15:00;;;;;;;1.40;1.13;;;17.80;65.40;;;;;;10435398;28;20196;-63
2021/12/20 11:20:23;;;;;;;1.67;1.10;;;17.80;65.40;;;;;;10448014;28;20213;-63
2021/12/20 11:25:45;;;;;;;1.13;1.00;;;17.80;65.50;;;;;;10446628;28;20209;-63
2021/12/20 11:31:08;;;;;;;1.63;1.23;;;17.80;65.40;;;;;;10445767;28;20232;-63
2021/12/20 11:36:31;;;;;;;1.90;1.10;;;17.90;65.50;;;;;;10447977;28;20201;-62
2021/12/20 11:41:53;;;;;;;1.77;1.10;;;17.80;65.40;;;;;;10445327;28;20375;-63
2021/12/20 11:47:24;;;;;;;2.00;1.07;;;17.90;65.40;;;;;;10447967;28;20221;-64
2021/12/20 11:52:48;;;;;;;1.93;1.10;;;17.80;65.30;;;;;;10447267;28;20678;-63
2021/12/20 11:58:17;;;;;;;4.07;1.73;;;17.90;65.40;;;;;;10440436;28;20590;-62
2021/12/20 12:03:53;;;;;;;2.40;1.73;;;17.80;65.10;;;;;;10440809;28;20193;-62
2021/12/20 12:09:17;;;;;;;2.57;1.30;;;17.80;65.00;;;;;;10443683;28;20240;-63
2021/12/20 12:15:02;;;;;;;3.30;1.33;;;17.80;65.40;;;;;;10445919;28;20204;-62
2021/12/20 12:20:41;;;;;;;3.23;1.47;;;17.70;65.30;;;;;;10446108;28;20581;-63
2021/12/20 12:26:05;;;;;;;3.10;1.90;;;17.70;65.40;;;;;;10450744;28;20227;-63
2021/12/20 12:31:42;;;;;;;2.90;1.90;;;17.70;65.80;;;;;;10454392;28;20205;-62
2021/12/20 12:37:21;;;;;;;3.67;1.70;;;17.70;65.80;;;;;;10453824;28;20404;-61
2021/12/20 12:42:49;;;;;;;3.93;1.83;;;17.70;65.50;;;;;;10453022;28;20276;-62
2021/12/20 12:48:33;;;;;;;4.37;2.00;;;17.80;66.10;;;;;;10452653;28;20228;-62
2021/12/20 12:53:57;;;;;;;2.43;1.70;;;17.80;66.00;;;;;;10447000;28;20242;-62
2021/12/20 12:59:24;;;;;;;3.10;1.57;;;17.80;66.20;;;;;;10452515;28;20221;-62
2021/12/20 13:04:47;;;;;;;3.27;1.97;;;17.80;66.20;;;;;;10421058;22;20316;-66
2021/12/20 13:10:14;;;;;;;3.20;1.80;;;17.80;66.10;;;;;;10375487;28;20223;-66
2021/12/20 13:15:41;;;;;;;3.43;2.03;;;17.90;66.00;;;;;;10370560;28;20579;-66
2021/12/20 13:21:06;;;;;;;4.07;2.03;;;17.90;65.90;;;;;;10371020;28;20754;-66
2021/12/20 13:26:32;;;;;;;5.37;2.30;;;17.90;65.70;;;;;;10370428;28;20620;-65
2021/12/20 13:32:05;;;;;;;3.90;2.17;;;17.90;65.50;;;;;;10362940;28;20203;-64
2021/12/20 13:37:35;;;;;;;3.30;1.87;;;17.90;65.20;;;;;;10369507;28;20312;-64
2021/12/20 13:42:58;;;;;;;3.47;1.73;;;17.90;65.30;;;;;;10361521;28;20398;-64
2021/12/20 13:48:21;;;;;;;4.07;2.13;;;17.90;65.30;;;;;;10367791;28;20218;-66
2021/12/20 13:53:43;;;;;;;3.63;2.00;;;17.90;65.30;;;;;;10369764;28;20194;-66
2021/12/20 13:59:07;;;;;;;4.03;2.30;;;17.90;65.40;;;;;;10370003;28;20218;-65
2021/12/20 14:04:35;;;;;;;3.47;1.70;;;17.90;65.50;;;;;;10369669;28;20206;-65
2021/12/20 14:10:07;;;;;;;3.07;1.77;;;17.80;65.40;;;;;;10366700;28;20211;-65
2021/12/20 14:15:33;;;;;;;2.37;1.73;;;17.90;65.40;;;;;;10369907;28;20187;-66
2021/12/20 14:21:02;;;;;;;3.40;1.97;;;17.90;65.60;;;;;;10368106;28;20580;-66
2021/12/20 14:26:26;;;;;;;2.80;1.97;;;17.90;65.50;;;;;;10367210;28;20229;-66
2021/12/20 14:31:52;;;;;;;3.50;1.53;;;17.80;65.50;;;;;;10368078;28;20576;-66
2021/12/20 14:37:16;;;;;;;3.07;1.77;;;17.80;65.50;;;;;;10367587;28;20214;-66
2021/12/20 14:42:38;;;;;;;2.17;1.40;;;17.80;65.50;;;;;;10354884;28;20197;-66
2021/12/20 14:48:21;;;;;;;2.10;1.53;;;17.80;65.50;;;;;;10368322;28;20718;-66
2021/12/20 14:53:44;;;;;;;2.43;1.60;;;17.90;66.00;;;;;;10367714;28;20194;-64
2021/12/20 14:59:06;;;;;;;4.77;1.80;;;17.80;65.50;;;;;;10370436;28;20226;-64
2021/12/20 15:04:29;;;;;;;2.73;1.93;;;17.80;65.50;;;;;;10374221;28;20577;-66
2021/12/20 15:09:52;;;;;;;3.67;1.70;;;17.80;65.50;;;;;;10368880;28;20230;-66
2021/12/20 15:15:14;;;;;;;3.27;1.90;;;17.80;65.60;;;;;;10367193;28;20682;-66
2021/12/20 15:20:38;;;;;;;3.27;1.80;;;17.80;65.50;;;;;;10365367;28;20221;-66
2021/12/20 15:26:00;;;;;;;2.57;1.83;;;17.80;65.50;;;;;;10361625;28;20381;-66
2021/12/20 15:31:22;;;;;;;2.50;1.60;;;17.80;65.50;;;;;;10363398;28;20199;-66
2021/12/20 15:36:46;;;;;;;3.17;1.70;;;17.80;65.50;;;;;;10365439;28;20215;-65
2021/12/20 15:42:16;;;;;;;2.17;1.73;;;17.80;65.50;;;;;;10361670;28;20205;-66
2021/12/20 15:47:39;;;;;;;3.57;1.70;;;17.80;65.50;;;;;;10365155;28;20226;-66
2021/12/20 15:53:02;;;;;;;3.53;2.10;;;17.80;65.40;;;;;;10369194;28;20731;-66
2021/12/20 15:58:24;;;;;;;1.83;1.50;;;17.80;65.10;;;;;;10370259;28;20248;-65
2021/12/20 16:03:46;;;;;;;2.97;2.10;;;17.80;65.10;;;;;;10373600;28;20198;-65
2021/12/20 16:09:12;;;;;;;3.43;1.87;;;17.70;65.10;;;;;;10371869;28;20240;-65
2021/12/20 16:14:34;;;;;;;3.13;1.80;;;17.70;65.20;;;;;;10397572;28;20205;-66
2021/12/20 16:19:56;;;;;;;2.83;1.73;;;17.80;65.30;;;;;;10371992;28;20218;-66
2021/12/20 16:25:20;;;;;;;2.73;1.90;;;17.70;65.10;;;;;;10373105;28;20198;-66
2021/12/20 16:30:43;;;;;;;2.57;1.70;;;17.70;65.10;;;;;;10363927;28;20222;-67
2021/12/20 16:36:06;;;;;;;2.53;1.80;;;17.70;65.20;;;;;;10370609;28;20415;-65
2021/12/20 16:41:29;;;;;;;3.50;2.40;;;17.90;64.70;;;;;;10372333;28;20209;-65
2021/12/20 16:46:57;;;;;;;2.73;1.93;;;17.80;64.70;;;;;;10360726;28;20230;-66
2021/12/20 16:52:20;;;;;;;3.00;1.97;;;17.70;64.90;;;;;;10382220;28;20293;-65
2021/12/20 16:57:44;;;;;;;3.17;1.97;;;17.70;65.20;;;;;;10370874;28;20218;-66
2021/12/20 17:03:09;;;;;;;5.50;2.77;;;17.70;65.40;;;;;;10373186;28;20218;-66
2021/12/20 17:08:31;;;;;;;4.07;2.45;;;17.70;65.60;;;;;;10369087;28;20566;-65
2021/12/20 17:13:54;;;;;;;3.17;2.20;;;17.80;65.50;;;;;;10369420;28;20584;-67
2021/12/20 17:19:17;;;;;;;5.50;2.97;;;17.80;65.80;;;;;;10370662;28;20587;-66
2021/12/20 17:24:42;;;;;;;5.03;3.27;;;17.80;65.80;;;;;;10371545;28;20194;-66
2021/12/20 17:30:07;;;;;;;7.37;3.47;;;17.80;65.50;;;;;;10366115;28;20240;-67
2021/12/20 17:35:30;;;;;;;5.77;3.83;;;17.80;65.10;;;;;;10368067;28;20203;-68
2021/12/20 17:40:52;;;;;;;4.63;3.77;;;17.80;64.50;;;;;;10364880;28;20217;-67
2021/12/20 17:46:18;;;;;;;4.97;4.00;;;17.80;64.40;;;;;;10370429;28;20218;-67
2021/12/20 17:51:40;;;;;;;4.70;3.70;;;17.80;64.60;;;;;;10371264;28;20288;-66
2021/12/20 17:57:03;;;;;;;4.40;3.43;;;17.80;64.70;;;;;;10356815;28;20214;-67
2021/12/20 18:02:28;;;;;;;5.33;4.10;;;17.80;64.80;;;;;;10369201;28;20213;-67
2021/12/20 18:07:50;;;;;;;5.33;3.70;;;17.80;64.60;;;;;;10367506;28;20230;-68
2021/12/20 18:13:12;;;;;;;6.20;4.10;;;17.90;64.60;;;;;;10357953;28;20203;-68
2021/12/20 18:18:36;;;;;;;5.05;4.15;;;17.90;64.50;;;;;;10365663;28;20423;-67
2021/12/20 18:23:58;;;;;;;6.37;3.90;;;18.70;61.80;;;;;;10367992;28;20194;-63
2021/12/20 18:29:21;;;;;;;6.27;4.17;;;18.20;63.40;;;;;;10368066;28;20215;-66
2021/12/20 18:34:44;;;;;;;5.50;3.97;;;18.00;63.90;;;;;;10366860;28;20202;-65
2021/12/20 18:40:09;;;;;;;5.53;4.00;;;18.00;64.10;;;;;;10367189;28;20207;-68
2021/12/20 18:45:31;;;;;;;4.60;3.80;;;18.00;64.20;;;;;;10368565;28;20556;-65
2021/12/20 18:50:58;;;;;;;8.83;3.97;;;18.00;64.20;;;;;;10366206;28;20588;-67
2021/12/20 18:56:20;;;;;;;4.47;3.90;;;18.00;64.20;;;;;;10364778;28;20686;-67
2021/12/20 19:01:42;;;;;;;6.27;4.40;;;17.90;64.10;;;;;;10364763;28;20206;-69
2021/12/20 19:07:06;;;;;;;4.93;4.17;;;17.90;64.10;;;;;;10363643;28;20245;-68
2021/12/20 19:12:34;;;;;;;4.57;4.07;;;18.00;64.10;;;;;;10366463;28;20306;-68
2021/12/20 19:17:56;;;;;;;4.97;4.27;;;18.00;64.00;;;;;;10361707;28;20305;-69
2021/12/20 19:23:20;;;;;;;5.27;4.40;;;18.00;64.00;;;;;;10364534;28;20663;-68
2021/12/20 19:28:42;;;;;;;5.20;3.83;;;18.00;64.10;;;;;;10361487;28;20731;-67
2021/12/20 19:34:04;;;;;;;5.97;4.00;;;18.00;64.10;;;;;;10364203;28;20596;-69
2021/12/20 19:39:30;;;;;;;5.20;4.20;;;18.00;64.10;;;;;;10366569;28;20210;-68
2021/12/20 19:44:52;;;;;;;5.03;4.03;;;18.00;64.10;;;;;;10352312;28;20201;-68
2021/12/20 19:50:14;;;;;;;4.47;4.07;;;18.00;64.10;;;;;;10359916;28;20241;-69
2021/12/20 19:55:39;;;;;;;4.27;3.60;;;18.00;64.10;;;;;;10358473;28;20248;-70
2021/12/20 20:01:03;;;;;;;5.18;4.32;;;18.00;64.10;;;;;;10361279;28;20423;-67
2021/12/20 20:06:25;;;;;;;4.90;3.80;;;18.30;62.90;;;;;;10394658;23;20232;-64
2021/12/20 20:11:49;;;;;;;5.87;4.47;;;18.10;63.50;;;;;;10436883;28;20665;-64
2021/12/20 20:17:11;;;;;;;4.77;4.17;;;18.00;63.70;;;;;;10439882;28;20562;-65
2021/12/20 20:22:34;;;;;;;4.20;3.67;;;17.90;63.80;;;;;;10437217;28;20570;-65
2021/12/20 20:27:58;;;;;;;5.90;3.97;;;17.90;63.80;;;;;;10437732;28;20233;-65
2021/12/20 20:33:21;;;;;;;4.73;4.00;;;17.90;63.90;;;;;;10439164;28;20292;-64
2021/12/20 20:38:43;;;;;;;5.53;4.13;;;17.90;63.90;;;;;;10438521;28;20209;-64
2021/12/20 20:44:08;;;;;;;5.53;4.03;;;17.90;63.80;;;;;;10442379;28;20254;-65
2021/12/20 20:49:30;;;;;;;4.47;3.60;;;17.90;63.80;;;;;;10447119;28;20221;-65
2021/12/20 20:54:52;;;;;;;6.50;4.20;;;17.90;63.80;;;;;;10449380;28;20247;-65
2021/12/20 21:05:56;;;;;;;4.10;3.63;;;17.90;63.70;;;;;;10454640;28;20200;-65
2021/12/20 21:11:19;;;;;;;4.67;3.87;;;17.90;63.70;;;;;;10425983;28;20344;-65
2021/12/20 21:16:44;;;;;;;5.70;3.47;;;17.90;63.80;;;;;;10455139;28;20220;-65
2021/12/20 21:22:07;;;;;;;4.37;3.57;;;17.90;63.70;;;;;;10455023;28;20196;-65
2021/12/20 21:27:29;;;;;;;5.83;3.70;;;17.90;63.70;;;;;;10453931;28;20601;-64
2021/12/20 21:32:53;;;;;;;4.40;3.57;;;17.90;63.70;;;;;;10429494;28;20205;-65
2021/12/20 21:38:16;;;;;;;4.40;3.43;;;17.90;63.70;;;;;;10447640;28;20216;-65
2021/12/20 21:43:39;;;;;;;3.37;3.00;;;17.90;63.70;;;;;;10446734;28;20194;-64
2021/12/20 21:49:03;;;;;;;3.97;3.23;;;17.90;63.70;;;;;;10446347;28;20221;-65
2021/12/20 21:54:25;;;;;;;5.47;3.87;;;17.90;63.70;;;;;;10451736;28;20189;-65
2021/12/20 21:59:47;;;;;;;3.37;2.83;;;17.80;63.60;;;;;;10436648;28;20221;-65
2021/12/20 22:05:11;;;;;;;4.13;3.40;;;17.80;63.60;;;;;;10410345;28;20679;-64
2021/12/20 22:10:33;;;;;;;5.90;3.30;;;17.80;63.60;;;;;;10443621;28;20213;-65
2021/12/20 22:15:56;;;;;;;4.23;3.27;;;17.80;63.60;;;;;;10449825;28;20204;-64
2021/12/20 22:21:19;;;;;;;4.07;3.23;;;17.80;63.60;;;;;;10410348;28;20198;-65
2021/12/20 22:26:41;;;;;;;3.17;2.87;;;17.80;63.50;;;;;;10411277;28;20221;-64
2021/12/20 22:32:04;;;;;;;5.00;3.13;;;17.80;63.50;;;;;;10410342;28;20186;-64
2021/12/20 22:37:28;;;;;;;3.70;3.03;;;17.80;64.10;;;;;;10426336;28;20232;-64
2021/12/20 22:42:50;;;;;;;3.87;3.07;;;17.90;63.50;;;;;;10451195;28;20671;-64
2021/12/20 22:48:12;;;;;;;4.53;2.97;;;17.90;63.50;;;;;;10450877;28;20220;-64
2021/12/20 22:53:36;;;;;;;3.87;3.20;;;17.90;63.50;;;;;;10450829;28;20200;-64
2021/12/20 22:58:58;;;;;;;5.20;3.07;;;17.80;63.40;;;;;;10450257;28;20215;-64
2021/12/20 23:04:20;;;;;;;3.90;3.00;;;17.80;63.40;;;;;;10450301;28;20201;-64
2021/12/20 23:09:43;;;;;;;3.73;3.17;;;17.80;63.40;;;;;;10447682;28;20217;-64
2021/12/20 23:15:07;;;;;;;3.60;2.70;;;17.80;63.30;;;;;;10449748;28;20691;-64
2021/12/20 23:20:31;;;;;;;3.20;2.80;;;17.80;63.30;;;;;;10450369;28;20587;-64
2021/12/20 23:25:55;;;;;;;3.73;2.70;;;17.90;63.30;;;;;;10447999;28;20189;-64
2021/12/20 23:31:17;;;;;;;3.37;2.80;;;17.80;63.20;;;;;;10449255;28;20217;-64
2021/12/20 23:36:39;;;;;;;3.50;2.67;;;17.80;63.20;;;;;;10449336;28;20216;-64
2021/12/20 23:42:06;;;;;;;3.33;2.70;;;17.80;63.20;;;;;;10447542;28;20748;-64
2021/12/20 23:47:29;;;;;;;3.50;2.80;;;17.80;63.20;;;;;;10408385;28;20233;-64
2021/12/20 23:52:51;;;;;;;3.53;2.60;;;17.80;63.20;;;;;;10408563;28;20204;-65
2021/12/20 23:58:15;;;;;;;2.80;2.20;;;17.80;63.20;;;;;;10408022;28;20212;-64
